sensor_id;sensor_type;location;lat;lon;timestamp;pressure;altitude;pressure_sealevel;temperature;humidity
79309;BME280;68767;53.078;7.386;2024-03-08T00:01:22;102511.72;;;0.71;100.00
79309;BME280;68767;53.078;7.386;2024-03-08T00:03:50;102509.09;;;0.71;100.00
79309;BME280;68767;53.078;7.386;2024-03-08T00:06:18;102507.25;;;0.71;100.00
79309;BME280;68767;53.078;7.386;2024-03-08T00:08:45;102501.97;;;0.71;100.00
79309;BME280;68767;53.078;7.386;2024-03-08T00:11:12;102489.16;;;0.68;100.00
79309;BME280;68767;53.078;7.386;2024-03-08T00:13:39;102494.25;;;0.70;100.00
79309;BME280;68767;53.078;7.386;2024-03-08T00:16:06;102494.22;;;0.76;100.00
79309;BME280;68767;53.078;7.386;2024-03-08T00:18:34;102495.25;;;0.75;100.00
79309;BME280;68767;53.078;7.386;2024-03-08T00:21:01;102489.16;;;0.68;100.00
79309;BME280;68767;53.078;7.386;2024-03-08T00:23:28;102494.63;;;0.73;100.00
79309;BME280;68767;53.078;7.386;2024-03-08T00:25:55;102491.03;;;0.61;100.00
79309;BME280;68767;53.078;7.386;2024-03-08T00:28:22;102487.34;;;0.62;100.00
79309;BME280;68767;53.078;7.386;2024-03-08T00:30:51;102488.97;;;0.63;100.00
79309;BME280;68767;53.078;7.386;2024-03-08T00:33:18;102486.91;;;0.65;100.00
79309;BME280;68767;53.078;7.386;2024-03-08T00:35:45;102480.22;;;0.69;100.00
79309;BME280;68767;53.078;7.386;2024-03-08T00:38:12;102489.38;;;0.67;100.00
79309;BME280;68767;53.078;7.386;2024-03-08T00:40:39;102485.91;;;0.66;100.00
79309;BME280;68767;53.078;7.386;2024-03-08T00:43:07;102486.75;;;0.67;100.00
79309;BME280;68767;53.078;7.386;2024-03-08T00:45:34;102479.19;;;0.64;100.00
79309;BME280;68767;53.078;7.386;2024-03-08T00:48:00;102482.06;;;0.62;100.00
79309;BME280;68767;53.078;7.386;2024-03-08T00:50:27;102479.44;;;0.55;100.00
79309;BME280;68767;53.078;7.386;2024-03-08T00:52:54;102464.63;;;0.48;100.00
79309;BME280;68767;53.078;7.386;2024-03-08T00:55:21;102476.00;;;0.48;100.00
79309;BME280;68767;53.078;7.386;2024-03-08T00:57:48;102466.44;;;0.47;100.00
79309;BME280;68767;53.078;7.386;2024-03-08T01:00:15;102470.72;;;0.48;100.00
79309;BME280;68767;53.078;7.386;2024-03-08T01:02:42;102480.91;;;0.45;100.00
79309;BME280;68767;53.078;7.386;2024-03-08T01:05:09;102468.72;;;0.44;100.00
79309;BME280;68767;53.078;7.386;2024-03-08T01:07:35;102475.03;;;0.36;100.00
79309;BME280;68767;53.078;7.386;2024-03-08T01:10:03;102474.63;;;0.33;100.00
79309;BME280;68767;53.078;7.386;2024-03-08T01:12:30;102466.91;;;0.38;100.00
79309;BME280;68767;53.078;7.386;2024-03-08T01:14:57;102461.19;;;0.41;100.00
79309;BME280;68767;53.078;7.386;2024-03-08T01:17:25;102450.44;;;0.36;100.00
79309;BME280;68767;53.078;7.386;2024-03-08T01:19:52;102450.44;;;0.36;100.00
79309;BME280;68767;53.078;7.386;2024-03-08T01:22:20;102449.22;;;0.32;100.00
79309;BME280;68767;53.078;7.386;2024-03-08T01:24:46;102446.34;;;0.33;100.00
79309;BME280;68767;53.078;7.386;2024-03-08T01:27:14;102437.63;;;0.33;100.00
79309;BME280;68767;53.078;7.386;2024-03-08T01:29:41;102434.00;;;0.27;100.00
79309;BME280;68767;53.078;7.386;2024-03-08T01:32:08;102433.34;;;0.32;100.00
79309;BME280;68767;53.078;7.386;2024-03-08T01:34:35;102432.38;;;0.26;100.00
79309;BME280;68767;53.078;7.386;2024-03-08T01:37:01;102422.22;;;0.23;100.00
79309;BME280;68767;53.078;7.386;2024-03-08T01:39:28;102416.53;;;0.19;100.00
79309;BME280;68767;53.078;7.386;2024-03-08T01:41:55;102415.50;;;0.20;100.00
79309;BME280;68767;53.078;7.386;2024-03-08T01:44:22;102415.31;;;0.22;100.00
79309;BME280;68767;53.078;7.386;2024-03-08T01:46:49;102409.44;;;0.13;100.00
79309;BME280;68767;53.078;7.386;2024-03-08T01:49:18;102406.19;;;0.11;100.00
79309;BME280;68767;53.078;7.386;2024-03-08T01:51:49;102402.09;;;0.15;100.00
79309;BME280;68767;53.078;7.386;2024-03-08T01:54:18;102397.47;;;0.11;100.00
79309;BME280;68767;53.078;7.386;2024-03-08T01:56:46;102399.09;;;0.12;100.00
79309;BME280;68767;53.078;7.386;2024-03-08T01:59:14;102398.66;;;0.08;100.00
79309;BME280;68767;53.078;7.386;2024-03-08T02:01:42;102397.69;;;0.03;100.00
79309;BME280;68767;53.078;7.386;2024-03-08T02:04:10;102387.34;;;0.01;100.00
79309;BME280;68767;53.078;7.386;2024-03-08T02:06:37;102384.06;;;-0.01;100.00
79309;BME280;68767;53.078;7.386;2024-03-08T02:09:05;102382.06;;;-0.06;100.00
79309;BME280;68767;53.078;7.386;2024-03-08T02:11:36;102381.84;;;-0.04;100.00
79309;BME280;68767;53.078;7.386;2024-03-08T02:14:03;102388.75;;;-0.03;100.00
79309;BME280;68767;53.078;7.386;2024-03-08T02:16:33;102380.63;;;-0.02;100.00
79309;BME280;68767;53.078;7.386;2024-03-08T02:19:00;102380.44;;;-0.07;100.00
79309;BME280;68767;53.078;7.386;2024-03-08T02:21:27;102382.44;;;-0.02;100.00
79309;BME280;68767;53.078;7.386;2024-03-08T02:23:54;102380.44;;;-0.07;100.00
79309;BME280;68767;53.078;7.386;2024-03-08T02:26:21;102375.97;;;-0.06;100.00
79309;BME280;68767;53.078;7.386;2024-03-08T02:28:49;102374.72;;;-0.04;100.00
79309;BME280;68767;53.078;7.386;2024-03-08T02:31:16;102380.66;;;-0.08;100.00
79309;BME280;68767;53.078;7.386;2024-03-08T02:33:43;102374.97;;;-0.12;100.00
79309;BME280;68767;53.078;7.386;2024-03-08T02:36:10;102376.19;;;-0.14;100.00
79309;BME280;68767;53.078;7.386;2024-03-08T02:38:37;102371.72;;;-0.14;100.00
79309;BME280;68767;53.078;7.386;2024-03-08T02:41:04;102369.47;;;-0.17;100.00
79309;BME280;68767;53.078;7.386;2024-03-08T02:43:31;102360.56;;;-0.16;100.00
79309;BME280;68767;53.078;7.386;2024-03-08T02:45:58;102363.38;;;-0.17;100.00
79309;BME280;68767;53.078;7.386;2024-03-08T02:48:26;102358.91;;;-0.17;100.00
79309;BME280;68767;53.078;7.386;2024-03-08T02:50:53;102353.47;;;-0.22;100.00
79309;BME280;68767;53.078;7.386;2024-03-08T02:53:20;102360.38;;;-0.21;100.00
79309;BME280;68767;53.078;7.386;2024-03-08T02:55:47;102357.13;;;-0.23;100.00
79309;BME280;68767;53.078;7.386;2024-03-08T02:58:14;102361.19;;;-0.27;100.00
79309;BME280;68767;53.078;7.386;2024-03-08T03:00:41;102354.09;;;-0.33;100.00
79309;BME280;68767;53.078;7.386;2024-03-08T03:03:11;102357.50;;;-0.26;100.00
79309;BME280;68767;53.078;7.386;2024-03-08T03:05:38;102353.47;;;-0.35;100.00
79309;BME280;68767;53.078;7.386;2024-03-08T03:08:14;102347.59;;;-0.31;100.00
79309;BME280;68767;53.078;7.386;2024-03-08T03:10:42;102347.81;;;-0.39;100.00
79309;BME280;68767;53.078;7.386;2024-03-08T03:13:08;102346.56;;;-0.36;100.00
79309;BME280;68767;53.078;7.386;2024-03-08T03:15:35;102351.69;;;-0.41;100.00
79309;BME280;68767;53.078;7.386;2024-03-08T03:18:03;102345.78;;;-0.50;100.00
79309;BME280;68767;53.078;7.386;2024-03-08T03:20:31;102348.03;;;-0.53;100.00
79309;BME280;68767;53.078;7.386;2024-03-08T03:23:08;102345.59;;;-0.55;100.00
79309;BME280;68767;53.078;7.386;2024-03-08T03:25:36;102336.06;;;-0.56;100.00
79309;BME280;68767;53.078;7.386;2024-03-08T03:28:05;102342.38;;;-0.64;100.00
79309;BME280;68767;53.078;7.386;2024-03-08T03:30:34;102338.31;;;-0.73;100.00
79309;BME280;68767;53.078;7.386;2024-03-08T03:33:02;102342.56;;;-0.85;100.00
79309;BME280;68767;53.078;7.386;2024-03-08T03:35:34;102332.84;;;-0.85;100.00
79309;BME280;68767;53.078;7.386;2024-03-08T03:38:04;102336.28;;;-0.71;100.00
79309;BME280;68767;53.078;7.386;2024-03-08T03:40:31;102334.88;;;-0.73;100.00
79309;BME280;68767;53.078;7.386;2024-03-08T03:42:58;102334.84;;;-0.67;100.00
79309;BME280;68767;53.078;7.386;2024-03-08T03:45:25;102336.88;;;-0.75;100.00
79309;BME280;68767;53.078;7.386;2024-03-08T03:47:52;102330.78;;;-0.76;100.00
79309;BME280;68767;53.078;7.386;2024-03-08T03:50:19;102327.16;;;-0.81;100.00
79309;BME280;68767;53.078;7.386;2024-03-08T03:52:46;102331.63;;;-0.82;100.00
79309;BME280;68767;53.078;7.386;2024-03-08T03:55:14;102325.94;;;-0.72;100.00
79309;BME280;68767;53.078;7.386;2024-03-08T03:57:41;102325.53;;;-0.76;100.00
79309;BME280;68767;53.078;7.386;2024-03-08T04:00:08;102324.72;;;-0.76;100.00
79309;BME280;68767;53.078;7.386;2024-03-08T04:02:40;102320.88;;;-0.80;100.00
79309;BME280;68767;53.078;7.386;2024-03-08T04:05:08;102326.16;;;-0.74;100.00
79309;BME280;68767;53.078;7.386;2024-03-08T04:07:36;102330.41;;;-0.66;100.00
79309;BME280;68767;53.078;7.386;2024-03-08T04:10:03;102323.09;;;-0.71;100.00
79309;BME280;68767;53.078;7.386;2024-03-08T04:12:30;102329.97;;;-0.76;100.00
79309;BME280;68767;53.078;7.386;2024-03-08T04:14:57;102324.09;;;-0.85;100.00
79309;BME280;68767;53.078;7.386;2024-03-08T04:17:24;102324.31;;;-0.73;100.00
79309;BME280;68767;53.078;7.386;2024-03-08T04:19:51;102325.53;;;-0.76;100.00
79309;BME280;68767;53.078;7.386;2024-03-08T04:22:18;102315.59;;;-0.74;100.00
79309;BME280;68767;53.078;7.386;2024-03-08T04:24:45;102315.38;;;-0.72;100.00
79309;BME280;68767;53.078;7.386;2024-03-08T04:27:13;102312.16;;;-0.74;100.00
79309;BME280;68767;53.078;7.386;2024-03-08T04:29:41;102310.09;;;-0.66;100.00
79309;BME280;68767;53.078;7.386;2024-03-08T04:32:08;102305.00;;;-0.67;100.00
79309;BME280;68767;53.078;7.386;2024-03-08T04:34:35;102299.94;;;-0.69;100.00
79309;BME280;68767;53.078;7.386;2024-03-08T04:37:02;102289.38;;;-0.62;100.00
79309;BME280;68767;53.078;7.386;2024-03-08T04:39:31;102283.72;;;-0.66;100.00
79309;BME280;68767;53.078;7.386;2024-03-08T04:41:59;102278.81;;;-0.62;100.00
79309;BME280;68767;53.078;7.386;2024-03-08T04:44:31;102280.44;;;-0.68;100.00
79309;BME280;68767;53.078;7.386;2024-03-08T04:47:00;102270.09;;;-0.69;100.00
79309;BME280;68767;53.078;7.386;2024-03-08T04:49:27;102286.75;;;-0.75;100.00
79309;BME280;68767;53.078;7.386;2024-03-08T04:51:55;102270.75;;;-0.80;100.00
79309;BME280;68767;53.078;7.386;2024-03-08T04:54:21;102270.97;;;-0.82;100.00
79309;BME280;68767;53.078;7.386;2024-03-08T04:56:48;102268.91;;;-0.87;100.00
79309;BME280;68767;53.078;7.386;2024-03-08T04:59:16;102272.38;;;-0.86;100.00
79309;BME280;68767;53.078;7.386;2024-03-08T05:01:43;102267.72;;;-0.91;100.00
79309;BME280;68767;53.078;7.386;2024-03-08T05:04:10;102267.31;;;-0.94;100.00
79309;BME280;68767;53.078;7.386;2024-03-08T05:06:37;102260.63;;;-0.90;100.00
79309;BME280;68767;53.078;7.386;2024-03-08T05:09:03;102252.88;;;-0.85;100.00
79309;BME280;68767;53.078;7.386;2024-03-08T05:11:41;102252.88;;;-0.85;100.00
79309;BME280;68767;53.078;7.386;2024-03-08T05:14:08;102250.25;;;-0.78;100.00
79309;BME280;68767;53.078;7.386;2024-03-08T05:16:35;102239.09;;;-0.80;100.00
79309;BME280;68767;53.078;7.386;2024-03-08T05:19:02;102246.56;;;-0.77;100.00
79309;BME280;68767;53.078;7.386;2024-03-08T05:21:29;102243.94;;;-0.77;100.00
79309;BME280;68767;53.078;7.386;2024-03-08T05:23:56;102241.09;;;-0.76;100.00
79309;BME280;68767;53.078;7.386;2024-03-08T05:26:23;102227.50;;;-0.79;100.00
79309;BME280;68767;53.078;7.386;2024-03-08T05:28:50;102235.00;;;-0.76;100.00
79309;BME280;68767;53.078;7.386;2024-03-08T05:31:20;102230.75;;;-0.77;100.00
79309;BME280;68767;53.078;7.386;2024-03-08T05:33:49;102235.00;;;-0.76;100.00
79309;BME280;68767;53.078;7.386;2024-03-08T05:36:17;102229.50;;;-0.75;100.00
79309;BME280;68767;53.078;7.386;2024-03-08T05:38:43;102239.88;;;-0.73;100.00
79309;BME280;68767;53.078;7.386;2024-03-08T05:41:10;102236.22;;;-0.72;100.00
79309;BME280;68767;53.078;7.386;2024-03-08T05:43:41;102237.84;;;-0.71;100.00
79309;BME280;68767;53.078;7.386;2024-03-08T05:46:08;102234.19;;;-0.77;100.00
79309;BME280;68767;53.078;7.386;2024-03-08T05:48:35;102233.59;;;-0.72;100.00
79309;BME280;68767;53.078;7.386;2024-03-08T05:51:03;102233.00;;;-0.74;100.00
79309;BME280;68767;53.078;7.386;2024-03-08T05:53:30;102231.16;;;-0.74;100.00
79309;BME280;68767;53.078;7.386;2024-03-08T05:55:58;102231.75;;;-0.72;100.00
79309;BME280;68767;53.078;7.386;2024-03-08T05:58:25;102230.75;;;-0.71;100.00
79309;BME280;68767;53.078;7.386;2024-03-08T06:00:52;102234.78;;;-0.68;100.00
79309;BME280;68767;53.078;7.386;2024-03-08T06:03:19;102221.38;;;-0.67;100.00
79309;BME280;68767;53.078;7.386;2024-03-08T06:05:48;102226.66;;;-0.67;100.00
79309;BME280;68767;53.078;7.386;2024-03-08T06:08:16;102222.41;;;-0.68;100.00
79309;BME280;68767;53.078;7.386;2024-03-08T06:10:43;102224.84;;;-0.66;100.00
79309;BME280;68767;53.078;7.386;2024-03-08T06:13:10;102219.97;;;-0.69;100.00
79309;BME280;68767;53.078;7.386;2024-03-08T06:15:39;102227.06;;;-0.70;100.00
79309;BME280;68767;53.078;7.386;2024-03-08T06:18:06;102225.69;;;-0.72;100.00
79309;BME280;68767;53.078;7.386;2024-03-08T06:20:33;102225.47;;;-0.71;100.00
79309;BME280;68767;53.078;7.386;2024-03-08T06:23:00;102234.38;;;-0.65;100.00
79309;BME280;68767;53.078;7.386;2024-03-08T06:25:28;102232.34;;;-0.70;100.00
79309;BME280;68767;53.078;7.386;2024-03-08T06:27:55;102234.38;;;-0.65;100.00
79309;BME280;68767;53.078;7.386;2024-03-08T06:30:21;102233.97;;;-0.62;100.00
79309;BME280;68767;53.078;7.386;2024-03-08T06:32:49;102237.41;;;-0.62;100.00
79309;BME280;68767;53.078;7.386;2024-03-08T06:35:16;102233.13;;;-0.56;100.00
79309;BME280;68767;53.078;7.386;2024-03-08T06:37:43;102234.97;;;-0.57;100.00
79309;BME280;68767;53.078;7.386;2024-03-08T06:40:11;102231.91;;;-0.53;100.00
79309;BME280;68767;53.078;7.386;2024-03-08T06:42:41;102232.28;;;-0.50;100.00
79309;BME280;68767;53.078;7.386;2024-03-08T06:45:08;102223.16;;;-0.47;100.00
79309;BME280;68767;53.078;7.386;2024-03-08T06:47:36;102225.97;;;-0.42;100.00
79309;BME280;68767;53.078;7.386;2024-03-08T06:50:04;102224.97;;;-0.41;100.00
79309;BME280;68767;53.078;7.386;2024-03-08T06:52:31;102223.94;;;-0.40;100.00
79309;BME280;68767;53.078;7.386;2024-03-08T06:54:58;102221.06;;;-0.32;100.00
79309;BME280;68767;53.078;7.386;2024-03-08T06:57:24;102224.31;;;-0.30;100.00
79309;BME280;68767;53.078;7.386;2024-03-08T06:59:51;102225.09;;;-0.23;100.00
79309;BME280;68767;53.078;7.386;2024-03-08T07:02:19;102217.53;;;-0.19;100.00
79309;BME280;68767;53.078;7.386;2024-03-08T07:04:45;102217.31;;;-0.18;100.00
79309;BME280;68767;53.078;7.386;2024-03-08T07:07:12;102221.56;;;-0.10;100.00
79309;BME280;68767;53.078;7.386;2024-03-08T07:09:39;102219.53;;;-0.08;100.00
79309;BME280;68767;53.078;7.386;2024-03-08T07:12:09;102223.78;;;-0.07;100.00
79309;BME280;68767;53.078;7.386;2024-03-08T07:14:36;102222.94;;;-0.01;100.00
79309;BME280;68767;53.078;7.386;2024-03-08T07:17:07;102218.03;;;0.03;100.00
79309;BME280;68767;53.078;7.386;2024-03-08T07:19:38;102218.00;;;0.09;100.00
79309;BME280;68767;53.078;7.386;2024-03-08T07:22:05;102222.28;;;0.10;100.00
79309;BME280;68767;53.078;7.386;2024-03-08T07:24:35;102214.69;;;0.20;100.00
79309;BME280;68767;53.078;7.386;2024-03-08T07:27:20;102210.97;;;0.28;100.00
79309;BME280;68767;53.078;7.386;2024-03-08T07:29:47;102206.66;;;0.34;100.00
79309;BME280;68767;53.078;7.386;2024-03-08T07:32:15;102206.41;;;0.42;100.00
79309;BME280;68767;53.078;7.386;2024-03-08T07:34:48;102204.88;;;0.52;100.00
79309;BME280;68767;53.078;7.386;2024-03-08T07:37:15;102199.97;;;0.56;100.00
79309;BME280;68767;53.078;7.386;2024-03-08T07:39:42;102205.78;;;0.65;100.00
79309;BME280;68767;53.078;7.386;2024-03-08T07:42:10;102189.06;;;0.71;100.00
79309;BME280;68767;53.078;7.386;2024-03-08T07:44:38;102194.06;;;0.79;100.00
79309;BME280;68767;53.078;7.386;2024-03-08T07:47:05;102184.69;;;0.83;100.00
79309;BME280;68767;53.078;7.386;2024-03-08T07:49:36;102182.34;;;0.93;100.00
79309;BME280;68767;53.078;7.386;2024-03-08T07:52:04;102190.41;;;0.98;100.00
79309;BME280;68767;53.078;7.386;2024-03-08T07:54:31;102176.09;;;1.06;100.00
79309;BME280;68767;53.078;7.386;2024-03-08T07:56:58;102174.19;;;1.13;100.00
79309;BME280;68767;53.078;7.386;2024-03-08T07:59:24;102170.44;;;1.21;100.00
79309;BME280;68767;53.078;7.386;2024-03-08T08:01:51;102161.25;;;1.23;100.00
79309;BME280;68767;53.078;7.386;2024-03-08T08:04:18;102154.19;;;1.35;100.00
79309;BME280;68767;53.078;7.386;2024-03-08T08:06:51;102158.38;;;1.43;100.00
79309;BME280;68767;53.078;7.386;2024-03-08T08:09:18;102163.72;;;1.55;100.00
79309;BME280;68767;53.078;7.386;2024-03-08T08:11:55;102154.41;;;1.64;100.00
79309;BME280;68767;53.078;7.386;2024-03-08T08:14:22;102148.00;;;1.72;100.00
79309;BME280;68767;53.078;7.386;2024-03-08T08:16:49;102138.94;;;1.79;100.00
79309;BME280;68767;53.078;7.386;2024-03-08T08:19:19;102133.53;;;1.86;100.00
79309;BME280;68767;53.078;7.386;2024-03-08T08:21:46;102123.56;;;2.00;100.00
79309;BME280;68767;53.078;7.386;2024-03-08T08:24:13;102119.16;;;2.05;100.00
79309;BME280;68767;53.078;7.386;2024-03-08T08:26:41;102124.16;;;2.25;100.00
79309;BME280;68767;53.078;7.386;2024-03-08T08:29:07;102123.56;;;2.23;100.00
79309;BME280;68767;53.078;7.386;2024-03-08T08:31:34;102105.72;;;2.42;100.00
79309;BME280;68767;53.078;7.386;2024-03-08T08:34:01;102115.66;;;2.58;100.00
79309;BME280;68767;53.078;7.386;2024-03-08T08:36:29;102102.81;;;2.55;100.00
79309;BME280;68767;53.078;7.386;2024-03-08T08:38:57;102107.31;;;2.54;100.00
79309;BME280;68767;53.078;7.386;2024-03-08T08:41:26;102105.84;;;2.59;100.00
79309;BME280;68767;53.078;7.386;2024-03-08T08:43:53;102098.81;;;2.52;100.00
79309;BME280;68767;53.078;7.386;2024-03-08T08:46:34;102090.38;;;2.56;100.00
79309;BME280;68767;53.078;7.386;2024-03-08T08:49:07;102087.50;;;2.57;100.00
79309;BME280;68767;53.078;7.386;2024-03-08T08:51:37;102082.63;;;2.77;100.00
79309;BME280;68767;53.078;7.386;2024-03-08T08:54:05;102081.94;;;2.70;100.00
79309;BME280;68767;53.078;7.386;2024-03-08T08:56:37;102074.34;;;2.62;100.00
79309;BME280;68767;53.078;7.386;2024-03-08T08:59:04;102067.66;;;2.48;100.00
79309;BME280;68767;53.078;7.386;2024-03-08T09:01:31;102069.94;;;2.56;100.00
79309;BME280;68767;53.078;7.386;2024-03-08T09:03:58;102066.28;;;2.57;100.00
79309;BME280;68767;53.078;7.386;2024-03-08T09:06:25;102060.59;;;2.77;100.00
79309;BME280;68767;53.078;7.386;2024-03-08T09:08:52;102061.84;;;2.86;100.00
79309;BME280;68767;53.078;7.386;2024-03-08T09:11:20;102059.75;;;2.88;100.00
79309;BME280;68767;53.078;7.386;2024-03-08T09:13:47;102063.00;;;2.90;100.00
79309;BME280;68767;53.078;7.386;2024-03-08T09:16:13;102052.47;;;2.95;100.00
79309;BME280;68767;53.078;7.386;2024-03-08T09:18:40;102057.59;;;3.14;100.00
79309;BME280;68767;53.078;7.386;2024-03-08T09:21:08;102041.66;;;3.14;100.00
79309;BME280;68767;53.078;7.386;2024-03-08T09:23:39;102051.78;;;3.45;100.00
79309;BME280;68767;53.078;7.386;2024-03-08T09:26:08;102037.41;;;3.58;100.00
79309;BME280;68767;53.078;7.386;2024-03-08T09:28:48;102043.84;;;3.62;100.00
79309;BME280;68767;53.078;7.386;2024-03-08T09:31:15;102022.13;;;3.82;100.00
79309;BME280;68767;53.078;7.386;2024-03-08T09:33:42;102037.28;;;3.81;100.00
79309;BME280;68767;53.078;7.386;2024-03-08T09:36:09;102022.97;;;4.04;100.00
79309;BME280;68767;53.078;7.386;2024-03-08T09:38:36;102026.94;;;4.02;100.00
79309;BME280;68767;53.078;7.386;2024-03-08T09:41:03;102018.06;;;3.96;100.00
79309;BME280;68767;53.078;7.386;2024-03-08T09:43:30;102025.09;;;4.02;100.00
79309;BME280;68767;53.078;7.386;2024-03-08T09:45:57;102011.38;;;4.10;100.00
79309;BME280;68767;53.078;7.386;2024-03-08T09:48:25;102009.66;;;4.21;100.00
79309;BME280;68767;53.078;7.386;2024-03-08T09:50:52;102006.81;;;4.28;100.00
79309;BME280;68767;53.078;7.386;2024-03-08T09:53:20;101995.34;;;4.22;100.00
79309;BME280;68767;53.078;7.386;2024-03-08T09:55:49;102001.03;;;4.31;100.00
79309;BME280;68767;53.078;7.386;2024-03-08T09:58:16;101989.53;;;4.47;100.00
79309;BME280;68767;53.078;7.386;2024-03-08T10:00:57;101993.47;;;4.66;100.00
79309;BME280;68767;53.078;7.386;2024-03-08T10:03:24;101984.53;;;4.99;100.00
79309;BME280;68767;53.078;7.386;2024-03-08T10:05:53;101989.53;;;4.96;100.00
79309;BME280;68767;53.078;7.386;2024-03-08T10:08:22;101984.53;;;4.99;100.00
79309;BME280;68767;53.078;7.386;2024-03-08T10:10:50;101981.00;;;5.21;100.00
79309;BME280;68767;53.078;7.386;2024-03-08T10:13:17;101971.38;;;5.47;100.00
79309;BME280;68767;53.078;7.386;2024-03-08T10:15:46;101971.41;;;5.52;100.00
79309;BME280;68767;53.078;7.386;2024-03-08T10:18:13;101970.44;;;5.31;100.00
79309;BME280;68767;53.078;7.386;2024-03-08T10:20:40;101968.94;;;5.45;100.00
79309;BME280;68767;53.078;7.386;2024-03-08T10:23:08;101952.03;;;5.61;100.00
79309;BME280;68767;53.078;7.386;2024-03-08T10:25:37;101962.09;;;5.54;100.00
79309;BME280;68767;53.078;7.386;2024-03-08T10:28:05;101955.78;;;5.66;100.00
79309;BME280;68767;53.078;7.386;2024-03-08T10:30:32;101951.00;;;5.68;100.00
79309;BME280;68767;53.078;7.386;2024-03-08T10:32:59;101950.13;;;5.57;100.00
79309;BME280;68767;53.078;7.386;2024-03-08T10:35:26;101947.63;;;5.45;100.00
79309;BME280;68767;53.078;7.386;2024-03-08T10:37:53;101941.31;;;5.94;100.00
79309;BME280;68767;53.078;7.386;2024-03-08T10:40:26;101928.06;;;6.09;100.00
79309;BME280;68767;53.078;7.386;2024-03-08T10:42:57;101922.28;;;6.27;100.00
79309;BME280;68767;53.078;7.386;2024-03-08T10:45:35;101924.72;;;6.34;100.00
79309;BME280;68767;53.078;7.386;2024-03-08T10:50:36;101923.47;;;6.57;100.00
79309;BME280;68767;53.078;7.386;2024-03-08T10:53:03;101922.91;;;6.50;100.00
79309;BME280;68767;53.078;7.386;2024-03-08T10:55:33;101910.19;;;6.87;100.00
79309;BME280;68767;53.078;7.386;2024-03-08T10:58:03;101911.78;;;6.98;100.00
79309;BME280;68767;53.078;7.386;2024-03-08T11:00:30;101907.78;;;7.16;100.00
79309;BME280;68767;53.078;7.386;2024-03-08T11:02:58;101900.31;;;7.13;100.00
79309;BME280;68767;53.078;7.386;2024-03-08T11:05:39;101899.75;;;7.01;100.00
79309;BME280;68767;53.078;7.386;2024-03-08T11:10:50;101879.72;;;7.39;100.00
79309;BME280;68767;53.078;7.386;2024-03-08T11:13:32;101879.44;;;7.41;100.00
79309;BME280;68767;53.078;7.386;2024-03-08T11:15:59;101874.00;;;7.76;100.00
79309;BME280;68767;53.078;7.386;2024-03-08T11:18:26;101879.06;;;7.83;100.00
79309;BME280;68767;53.078;7.386;2024-03-08T11:20:54;101860.28;;;7.98;100.00
79309;BME280;68767;53.078;7.386;2024-03-08T11:23:24;101865.13;;;7.91;100.00
79309;BME280;68767;53.078;7.386;2024-03-08T11:25:52;101853.59;;;8.01;100.00
79309;BME280;68767;53.078;7.386;2024-03-08T11:28:20;101858.91;;;8.11;100.00
79309;BME280;68767;53.078;7.386;2024-03-08T11:33:30;101855.78;;;7.83;100.00
79309;BME280;68767;53.078;7.386;2024-03-08T11:38:43;101843.38;;;8.08;100.00
79309;BME280;68767;53.078;7.386;2024-03-08T11:41:10;101844.34;;;8.27;100.00
79309;BME280;68767;53.078;7.386;2024-03-08T11:43:45;101837.31;;;7.92;100.00
79309;BME280;68767;53.078;7.386;2024-03-08T11:46:12;101826.34;;;7.88;100.00
79309;BME280;68767;53.078;7.386;2024-03-08T11:48:40;101824.44;;;7.94;100.00
79309;BME280;68767;53.078;7.386;2024-03-08T11:51:09;101827.59;;;8.11;100.00
79309;BME280;68767;53.078;7.386;2024-03-08T11:53:38;101814.66;;;8.29;100.00
79309;BME280;68767;53.078;7.386;2024-03-08T11:56:08;101818.00;;;8.55;100.00
79309;BME280;68767;53.078;7.386;2024-03-08T11:58:35;101813.22;;;8.47;100.00
79309;BME280;68767;53.078;7.386;2024-03-08T12:01:04;101800.66;;;8.42;100.00
79309;BME280;68767;53.078;7.386;2024-03-08T12:03:32;101803.22;;;8.62;100.00
79309;BME280;68767;53.078;7.386;2024-03-08T12:06:00;101802.53;;;8.81;100.00
79309;BME280;68767;53.078;7.386;2024-03-08T12:08:28;101806.28;;;8.40;100.00
79309;BME280;68767;53.078;7.386;2024-03-08T12:10:55;101792.81;;;8.56;100.00
79309;BME280;68767;53.078;7.386;2024-03-08T12:13:30;101795.88;;;8.73;100.00
79309;BME280;68767;53.078;7.386;2024-03-08T12:15:58;101784.66;;;8.71;100.00
79309;BME280;68767;53.078;7.386;2024-03-08T12:18:25;101778.78;;;8.69;100.00
79309;BME280;68767;53.078;7.386;2024-03-08T12:21:03;101770.66;;;8.45;100.00
79309;BME280;68767;53.078;7.386;2024-03-08T12:23:30;101767.78;;;8.36;100.00
79309;BME280;68767;53.078;7.386;2024-03-08T12:25:57;101755.81;;;8.58;100.00
79309;BME280;68767;53.078;7.386;2024-03-08T12:28:24;101748.97;;;8.76;100.00
79309;BME280;68767;53.078;7.386;2024-03-08T12:30:53;101745.03;;;8.97;100.00
79309;BME280;68767;53.078;7.386;2024-03-08T12:33:22;101738.72;;;8.83;100.00
79309;BME280;68767;53.078;7.386;2024-03-08T12:35:53;101728.63;;;8.75;100.00
79309;BME280;68767;53.078;7.386;2024-03-08T12:38:27;101728.00;;;8.83;100.00
79309;BME280;68767;53.078;7.386;2024-03-08T12:40:55;101736.63;;;8.80;100.00
79309;BME280;68767;53.078;7.386;2024-03-08T12:43:23;101735.19;;;8.58;100.00
79309;BME280;68767;53.078;7.386;2024-03-08T12:45:49;101732.81;;;8.52;100.00
79309;BME280;68767;53.078;7.386;2024-03-08T12:48:17;101725.41;;;8.43;100.00
79309;BME280;68767;53.078;7.386;2024-03-08T12:50:47;101729.53;;;8.60;100.00
79309;BME280;68767;53.078;7.386;2024-03-08T12:53:14;101724.53;;;8.53;100.00
79309;BME280;68767;53.078;7.386;2024-03-08T12:55:41;101722.09;;;8.86;100.00
79309;BME280;68767;53.078;7.386;2024-03-08T12:58:08;101716.69;;;9.15;100.00
79309;BME280;68767;53.078;7.386;2024-03-08T13:00:35;101713.16;;;9.19;100.00